Time;durP1;ratioP1;P1;durP2;ratioP2;P2;SDS_P1;SDS_P2;PMS_P1;PMS_P2;Temp;Humidity;BMP_temperature;BMP_pressure;BME280_temperature;BME280_humidity;BME280_pressure;Samples;Min_cycle;Max_cycle;Signal;HPM_P1;HPM_P2
2021/10/15 17:06:04;;;;;;;34.00;19.15;;;14.40;99.90;;;;;;2527134;54;50728;-71
2021/10/15 17:08:31;;;;;;;27.30;18.17;;;13.10;99.90;;;;;;2616835;47;20150;-66
2021/10/15 17:10:57;;;;;;;29.42;18.25;;;12.70;99.90;;;;;;2617843;54;20525;-67
2021/10/15 17:13:23;;;;;;;32.67;17.20;;;12.70;99.90;;;;;;2616628;47;20015;-66
2021/10/15 17:15:49;;;;;;;31.42;18.27;;;12.60;99.90;;;;;;2617918;54;20034;-72
2021/10/15 17:18:16;;;;;;;26.00;17.42;;;12.50;99.90;;;;;;2618002;54;20052;-70
2021/10/15 17:20:42;;;;;;;27.73;18.33;;;12.50;99.90;;;;;;2617556;54;20014;-70
2021/10/15 17:23:11;;;;;;;29.25;18.95;;;12.40;99.90;;;;;;2617378;54;20011;-71
2021/10/15 17:25:37;;;;;;;26.77;16.92;;;12.40;99.90;;;;;;2617253;39;20129;-72
2021/10/15 17:28:04;;;;;;;26.40;17.70;;;12.30;99.90;;;;;;2616657;47;20018;-68
2021/10/15 17:30:31;;;;;;;30.63;19.38;;;12.30;99.90;;;;;;2618438;39;20434;-72
2021/10/15 17:32:57;;;;;;;32.13;19.23;;;12.10;99.90;;;;;;2617844;54;20041;-69
2021/10/15 17:35:24;;;;;;;30.67;19.85;;;11.80;99.90;;;;;;2617965;54;20017;-71
2021/10/15 17:37:50;;;;;;;38.50;20.42;;;11.80;99.90;;;;;;2617232;54;20026;-71
2021/10/15 17:40:19;;;;;;;30.85;19.85;;;11.80;99.90;;;;;;2617572;47;20022;-71
2021/10/15 17:42:46;;;;;;;32.95;20.40;;;11.50;99.90;;;;;;2619150;54;20031;-67
2021/10/15 17:45:13;;;;;;;34.67;20.85;;;11.70;99.90;;;;;;2618295;46;20045;-71
2021/10/15 17:47:39;;;;;;;36.00;19.40;;;11.80;99.90;;;;;;2618961;54;20019;-71
2021/10/15 17:50:06;;;;;;;33.67;19.80;;;11.80;99.90;;;;;;2619131;54;20029;-71
2021/10/15 17:52:32;;;;;;;30.33;18.65;;;11.60;99.90;;;;;;2618935;54;20131;-67
2021/10/15 17:54:58;;;;;;;35.67;21.23;;;11.60;99.90;;;;;;2618567;47;20048;-71
2021/10/15 17:57:27;;;;;;;30.90;19.30;;;11.70;99.90;;;;;;2618355;47;20536;-67
2021/10/15 17:59:55;;;;;;;31.65;20.52;;;11.40;99.90;;;;;;2618783;54;20021;-71
2021/10/15 18:02:22;;;;;;;31.77;20.42;;;11.30;99.90;;;;;;2618763;54;20015;-72
2021/10/15 18:04:48;;;;;;;29.60;19.50;;;11.30;99.90;;;;;;2618769;54;20026;-70
2021/10/15 18:07:14;;;;;;;28.83;19.30;;;11.20;99.90;;;;;;2619374;39;20416;-72
2021/10/15 18:09:40;;;;;;;32.10;19.70;;;11.20;99.90;;;;;;2618991;54;20010;-72
2021/10/15 18:12:07;;;;;;;30.15;18.10;;;11.20;99.90;;;;;;2618426;47;20042;-71
2021/10/15 18:14:36;;;;;;;27.73;18.48;;;11.20;99.90;;;;;;2618850;54;20022;-71
2021/10/15 18:17:02;;;;;;;30.48;18.98;;;11.10;99.90;;;;;;2617758;47;20133;-71
2021/10/15 18:19:28;;;;;;;25.23;17.20;;;11.00;99.90;;;;;;2617960;54;20098;-69
2021/10/15 18:21:54;;;;;;;32.40;19.83;;;10.90;99.90;;;;;;2618669;54;20526;-74
2021/10/15 18:24:21;;;;;;;25.50;18.70;;;10.60;99.90;;;;;;2617753;54;20025;-71
2021/10/15 18:26:48;;;;;;;27.50;18.40;;;10.80;99.90;;;;;;2618573;39;20441;-67
2021/10/15 18:29:15;;;;;;;29.52;19.25;;;10.80;99.90;;;;;;2618074;39;20090;-71
2021/10/15 18:31:45;;;;;;;33.40;18.45;;;10.80;99.90;;;;;;2617856;47;20539;-73
2021/10/15 18:34:11;;;;;;;27.27;17.52;;;10.80;99.90;;;;;;2617863;47;20018;-74
2021/10/15 18:36:38;;;;;;;32.08;19.17;;;10.80;99.90;;;;;;2618862;54;20146;-71
2021/10/15 18:39:04;;;;;;;25.95;16.98;;;10.70;99.90;;;;;;2618204;47;20511;-67
2021/10/15 18:41:31;;;;;;;24.45;18.20;;;10.70;99.90;;;;;;2618945;54;20041;-70
2021/10/15 18:43:57;;;;;;;26.20;17.02;;;10.70;99.90;;;;;;2619013;54;20015;-72
2021/10/15 18:46:23;;;;;;;28.55;19.50;;;10.60;99.90;;;;;;2619254;39;20430;-72
2021/10/15 18:48:52;;;;;;;25.85;18.60;;;10.50;99.90;;;;;;2618540;39;20397;-71
2021/10/15 18:51:18;;;;;;;24.35;17.42;;;10.50;99.90;;;;;;2618959;54;20027;-70
2021/10/15 18:53:44;;;;;;;25.48;18.00;;;10.50;99.90;;;;;;2618686;54;20015;-66
2021/10/15 18:56:10;;;;;;;28.20;17.25;;;10.50;99.90;;;;;;2618783;54;20014;-71
2021/10/15 18:58:37;;;;;;;23.25;17.35;;;10.40;99.90;;;;;;2618240;47;20022;-71
2021/10/15 19:01:03;;;;;;;25.90;17.85;;;10.40;99.90;;;;;;2618884;54;20043;-70
2021/10/15 19:03:29;;;;;;;25.50;18.02;;;10.30;99.90;;;;;;2618854;54;20061;-69
2021/10/15 19:05:58;;;;;;;27.02;18.10;;;10.30;99.90;;;;;;2618758;54;20022;-67
2021/10/15 19:08:26;;;;;;;27.98;17.58;;;10.20;99.90;;;;;;2618942;54;20025;-66
2021/10/15 19:10:53;;;;;;;28.35;19.15;;;10.20;99.90;;;;;;2618906;54;20015;-71
2021/10/15 19:13:20;;;;;;;30.30;20.08;;;10.10;99.90;;;;;;2618830;54;20548;-66
2021/10/15 19:15:46;;;;;;;26.90;17.60;;;10.00;99.90;;;;;;2618863;54;20018;-71
2021/10/15 19:18:12;;;;;;;22.75;17.20;;;10.10;99.90;;;;;;2618751;54;20520;-67
2021/10/15 19:20:38;;;;;;;29.00;18.65;;;10.10;99.90;;;;;;2618914;54;20014;-74
2021/10/15 19:23:07;;;;;;;27.58;16.45;;;10.10;99.90;;;;;;2618503;39;20421;-69
2021/10/15 19:25:33;;;;;;;25.58;17.05;;;9.70;99.90;;;;;;2618933;54;20014;-71
2021/10/15 19:28:00;;;;;;;31.17;17.63;;;9.60;99.90;;;;;;2619334;39;20480;-71
2021/10/15 19:30:26;;;;;;;26.02;15.93;;;9.60;99.90;;;;;;2618966;54;20026;-68
2021/10/15 19:32:53;;;;;;;24.63;16.40;;;9.50;99.90;;;;;;2618851;54;20106;-67
2021/10/15 19:35:20;;;;;;;23.27;15.93;;;9.40;99.90;;;;;;2618818;54;20021;-66
2021/10/15 19:37:46;;;;;;;25.38;17.33;;;9.40;99.90;;;;;;2618803;54;20034;-70
2021/10/15 19:40:16;;;;;;;26.90;17.40;;;9.40;99.90;;;;;;2618673;54;20018;-69
2021/10/15 19:42:42;;;;;;;26.10;16.52;;;9.40;99.90;;;;;;2619143;39;20433;-70
2021/10/15 19:45:12;;;;;;;25.60;17.40;;;9.50;99.90;;;;;;2619094;39;20403;-70
2021/10/15 19:47:38;;;;;;;24.05;17.05;;;9.60;99.90;;;;;;2618791;54;20045;-66
2021/10/15 19:50:05;;;;;;;29.58;18.42;;;9.50;99.90;;;;;;2618564;54;20058;-71
2021/10/15 19:52:32;;;;;;;26.13;18.10;;;9.40;99.90;;;;;;2618745;54;20026;-69
2021/10/15 19:54:58;;;;;;;25.83;18.02;;;9.40;99.90;;;;;;2618774;54;20022;-72
2021/10/15 19:57:27;;;;;;;25.85;16.92;;;9.50;99.90;;;;;;2618743;54;20029;-70
2021/10/15 19:59:53;;;;;;;25.17;16.80;;;9.40;99.90;;;;;;2619558;39;20402;-69
2021/10/15 20:02:19;;;;;;;22.17;15.50;;;9.30;99.90;;;;;;2618639;54;20010;-71
2021/10/15 20:04:45;;;;;;;24.13;15.70;;;9.30;99.90;;;;;;2618366;54;20018;-70
2021/10/15 20:07:11;;;;;;;24.35;17.42;;;9.20;99.90;;;;;;2618704;54;20018;-67
2021/10/15 20:09:43;;;;;;;22.63;15.95;;;9.30;99.90;;;;;;2618738;54;20063;-70
2021/10/15 20:12:09;;;;;;;26.13;18.10;;;9.20;99.90;;;;;;2618584;54;20027;-71
2021/10/15 20:14:38;;;;;;;27.77;18.25;;;8.90;99.90;;;;;;2618485;54;20015;-71
2021/10/15 20:17:04;;;;;;;26.00;17.92;;;8.70;99.90;;;;;;2618698;54;20022;-66
2021/10/15 20:19:30;;;;;;;26.33;17.52;;;8.90;99.90;;;;;;2618702;54;20620;-71
2021/10/15 20:21:56;;;;;;;29.00;18.10;;;9.00;99.90;;;;;;2619420;31;20497;-69
2021/10/15 20:24:22;;;;;;;28.38;19.38;;;9.00;99.90;;;;;;2618734;54;20015;-72
2021/10/15 20:26:48;;;;;;;28.38;18.30;;;9.00;99.90;;;;;;2618193;47;20046;-67
2021/10/15 20:29:14;;;;;;;30.48;19.73;;;8.80;99.90;;;;;;2618730;54;20014;-72
2021/10/15 20:31:43;;;;;;;30.55;18.58;;;8.80;99.90;;;;;;2618441;54;20017;-67
2021/10/15 20:34:11;;;;;;;24.83;17.88;;;8.80;99.90;;;;;;2618461;54;20023;-69
2021/10/15 20:36:37;;;;;;;24.42;17.48;;;8.90;99.90;;;;;;2618561;54;20541;-70
2021/10/15 20:39:04;;;;;;;25.55;16.95;;;8.80;99.90;;;;;;2618790;54;20526;-71
2021/10/15 20:41:30;;;;;;;29.45;18.08;;;8.80;99.90;;;;;;2618520;54;20021;-68
2021/10/15 20:43:56;;;;;;;26.73;17.75;;;8.70;99.90;;;;;;2617874;47;20023;-70
2021/10/15 20:46:22;;;;;;;27.67;17.77;;;8.60;99.90;;;;;;2618626;54;20018;-66
2021/10/15 20:48:51;;;;;;;27.33;17.65;;;8.60;99.90;;;;;;2618460;54;20585;-66
2021/10/15 20:51:17;;;;;;;27.83;18.23;;;8.60;99.90;;;;;;2617989;47;20045;-70
2021/10/15 20:53:43;;;;;;;26.52;17.67;;;8.60;99.90;;;;;;2618090;54;20014;-69
2021/10/15 20:56:10;;;;;;;21.73;15.77;;;8.70;99.90;;;;;;2618477;54;20018;-70
2021/10/15 20:58:39;;;;;;;20.98;16.35;;;8.50;99.90;;;;;;2617964;54;20054;-70
2021/10/15 21:01:05;;;;;;;26.02;16.70;;;8.40;99.90;;;;;;2618250;54;20626;-72
2021/10/15 21:03:31;;;;;;;25.42;16.73;;;8.40;99.90;;;;;;2617979;54;20022;-72
2021/10/15 21:06:00;;;;;;;24.30;16.92;;;8.40;99.90;;;;;;2617807;54;20026;-71
2021/10/15 21:08:26;;;;;;;20.13;15.70;;;8.50;99.90;;;;;;2618118;47;20557;-68
2021/10/15 21:10:53;;;;;;;24.15;17.08;;;8.40;99.90;;;;;;2617431;47;20038;-69
2021/10/15 21:13:19;;;;;;;26.13;17.50;;;8.30;99.90;;;;;;2617911;39;20422;-66
2021/10/15 21:15:45;;;;;;;27.15;18.63;;;8.30;99.90;;;;;;2618618;54;20528;-70
2021/10/15 21:18:11;;;;;;;26.13;17.52;;;8.30;99.90;;;;;;2618666;54;20577;-73
2021/10/15 21:20:37;;;;;;;25.80;17.70;;;8.40;99.90;;;;;;2619206;54;20041;-72
2021/10/15 21:23:06;;;;;;;32.33;17.58;;;8.10;99.90;;;;;;2618878;54;20113;-71
2021/10/15 21:25:32;;;;;;;25.70;17.55;;;8.10;99.90;;;;;;2618550;46;20061;-72
2021/10/15 21:27:59;;;;;;;23.67;16.33;;;8.10;99.90;;;;;;2619136;54;20015;-70
2021/10/15 21:30:25;;;;;;;25.70;16.00;;;8.10;99.90;;;;;;2619287;54;20014;-67
2021/10/15 21:32:51;;;;;;;26.23;17.25;;;8.00;99.90;;;;;;2619360;54;20019;-69
2021/10/15 21:35:18;;;;;;;24.83;16.45;;;8.00;99.90;;;;;;2618847;46;20045;-71
2021/10/15 21:37:44;;;;;;;32.90;18.45;;;8.00;99.90;;;;;;2619189;54;20022;-70
2021/10/15 21:40:12;;;;;;;25.15;16.88;;;8.10;99.90;;;;;;2619148;54;20182;-66
2021/10/15 21:42:39;;;;;;;28.10;18.63;;;8.10;99.90;;;;;;2618896;46;20030;-70
2021/10/15 21:45:07;;;;;;;32.13;18.67;;;7.90;99.90;;;;;;2619325;54;20021;-67
2021/10/15 21:47:33;;;;;;;24.63;16.55;;;7.80;99.90;;;;;;2619386;54;20018;-71
2021/10/15 21:49:59;;;;;;;26.77;17.10;;;7.80;99.90;;;;;;2619191;54;20038;-66
2021/10/15 21:52:25;;;;;;;26.00;18.33;;;7.60;99.90;;;;;;2619367;54;20022;-69
2021/10/15 21:54:51;;;;;;;25.67;17.70;;;7.60;99.90;;;;;;2619711;39;20402;-70
2021/10/15 21:57:20;;;;;;;24.52;17.05;;;7.60;99.90;;;;;;2618944;54;20041;-66
2021/10/15 21:59:46;;;;;;;26.30;16.45;;;7.70;99.90;;;;;;2619089;54;20154;-70
2021/10/15 22:02:12;;;;;;;25.70;16.85;;;7.50;99.90;;;;;;2619220;54;20041;-66
2021/10/15 22:04:37;;;;;;;24.98;16.58;;;6.90;99.90;;;;;;2619615;39;20446;-71
2021/10/15 22:07:04;;;;;;;27.70;18.13;;;7.20;99.90;;;;;;2618846;54;20096;-70
2021/10/15 22:09:30;;;;;;;29.42;17.58;;;7.30;99.90;;;;;;2619315;54;20066;-70
2021/10/15 22:11:56;;;;;;;30.02;18.67;;;7.30;99.90;;;;;;2619109;54;20026;-70
2021/10/15 22:14:24;;;;;;;27.13;19.00;;;7.40;99.90;;;;;;2619096;54;20022;-67
2021/10/15 22:16:51;;;;;;;28.60;19.48;;;7.40;99.90;;;;;;2619187;54;20110;-70
2021/10/15 22:19:17;;;;;;;29.40;19.92;;;7.30;99.90;;;;;;2619006;54;20021;-71
2021/10/15 22:21:43;;;;;;;26.10;17.90;;;7.40;99.90;;;;;;2619142;54;20010;-72
2021/10/15 22:24:09;;;;;;;25.95;17.65;;;7.40;99.90;;;;;;2619155;54;20022;-70
2021/10/15 22:26:35;;;;;;;22.25;16.23;;;7.30;99.90;;;;;;2619046;54;20018;-70
2021/10/15 22:29:01;;;;;;;24.27;17.50;;;7.40;99.90;;;;;;2619138;54;20583;-69
2021/10/15 22:31:30;;;;;;;26.88;19.20;;;7.40;99.90;;;;;;2619022;54;20028;-71
2021/10/15 22:33:56;;;;;;;17.45;14.07;;;7.40;99.90;;;;;;2619054;54;20075;-72
2021/10/15 22:36:22;;;;;;;22.08;16.20;;;7.00;99.90;;;;;;2618353;47;20026;-71
2021/10/15 22:38:48;;;;;;;23.40;15.73;;;7.10;99.90;;;;;;2619035;54;20110;-71
2021/10/15 22:41:14;;;;;;;27.67;17.10;;;7.10;99.90;;;;;;2619253;54;20023;-70
2021/10/15 22:43:40;;;;;;;21.33;15.27;;;7.10;99.90;;;;;;2618426;47;20029;-70
2021/10/15 22:46:06;;;;;;;20.33;14.40;;;7.00;99.90;;;;;;2619075;54;20026;-71
2021/10/15 22:48:35;;;;;;;22.25;15.48;;;6.40;99.90;;;;;;2619287;39;20519;-72
2021/10/15 22:51:01;;;;;;;21.45;15.73;;;6.50;99.90;;;;;;2619371;39;20387;-70
2021/10/15 22:53:27;;;;;;;22.27;16.00;;;6.60;99.90;;;;;;2619034;54;20126;-71
2021/10/15 22:55:53;;;;;;;24.13;16.27;;;6.80;99.90;;;;;;2619425;39;20417;-72
2021/10/15 22:58:19;;;;;;;21.25;15.55;;;6.80;99.90;;;;;;2619404;39;20386;-71
2021/10/15 23:00:45;;;;;;;22.15;15.68;;;6.90;99.90;;;;;;2619533;31;20474;-71
2021/10/15 23:03:12;;;;;;;24.35;16.98;;;6.80;99.90;;;;;;2618898;54;20014;-70
2021/10/15 23:05:42;;;;;;;30.02;18.00;;;6.70;99.90;;;;;;2618641;54;20010;-69
2021/10/15 23:08:08;;;;;;;25.45;16.90;;;6.70;99.90;;;;;;2619016;54;20014;-70
2021/10/15 23:10:34;;;;;;;25.55;17.48;;;6.80;99.90;;;;;;2618845;54;20018;-70
2021/10/15 23:13:01;;;;;;;28.50;16.88;;;6.80;99.90;;;;;;2618849;54;20023;-70
2021/10/15 23:15:27;;;;;;;25.70;17.95;;;6.90;99.90;;;;;;2618975;54;20010;-69
2021/10/15 23:17:53;;;;;;;28.25;17.70;;;6.80;99.90;;;;;;2619006;54;20014;-70
2021/10/15 23:20:19;;;;;;;30.33;19.60;;;6.90;99.90;;;;;;2618929;54;20037;-71
2021/10/15 23:22:48;;;;;;;25.83;16.35;;;6.90;99.90;;;;;;2618828;54;20019;-71
2021/10/15 23:25:14;;;;;;;25.92;16.65;;;6.90;99.90;;;;;;2618895;54;20026;-72
2021/10/15 23:27:40;;;;;;;27.67;17.50;;;6.80;99.90;;;;;;2618529;46;20106;-70
2021/10/15 23:30:08;;;;;;;27.75;17.13;;;6.80;99.90;;;;;;2618872;54;20558;-72
2021/10/15 23:32:34;;;;;;;24.20;16.55;;;6.70;99.90;;;;;;2618134;47;20526;-71
2021/10/15 23:35:01;;;;;;;27.83;16.85;;;6.40;99.90;;;;;;2618725;54;20019;-69
2021/10/15 23:37:27;;;;;;;27.55;16.63;;;6.00;99.90;;;;;;2619258;39;20391;-66
2021/10/15 23:39:55;;;;;;;24.63;15.73;;;5.90;99.90;;;;;;2618858;54;20047;-67
2021/10/15 23:42:22;;;;;;;25.13;16.02;;;6.20;99.90;;;;;;2618783;54;20037;-70
2021/10/15 23:44:48;;;;;;;26.50;17.15;;;6.30;99.90;;;;;;2618955;54;20026;-70
2021/10/15 23:47:14;;;;;;;25.88;16.10;;;6.30;99.90;;;;;;2618860;54;20106;-72
2021/10/15 23:49:40;;;;;;;22.50;16.02;;;6.40;99.90;;;;;;2619266;39;20405;-70
2021/10/15 23:52:06;;;;;;;24.50;15.45;;;6.40;99.90;;;;;;2618770;54;20026;-71
2021/10/15 23:54:32;;;;;;;19.83;14.48;;;6.30;99.90;;;;;;2619238;39;20509;-71
2021/10/15 23:57:01;;;;;;;25.98;16.10;;;6.30;99.90;;;;;;2618770;54;20034;-69
2021/10/15 23:59:27;;;;;;;23.10;15.13;;;6.40;99.90;;;;;;2618118;46;20022;-67
